createdAt,value
2018-03-15T00:01:05.643Z,0.00
2018-03-15T00:03:33.725Z,0.00
2018-03-15T00:05:59.840Z,0.00
2018-03-15T00:08:25.956Z,-0.10
2018-03-15T00:10:52.032Z,-0.20
2018-03-15T00:13:18.137Z,-0.20
2018-03-15T00:15:44.228Z,-0.20
2018-03-15T00:18:11.063Z,-0.10
2018-03-15T00:20:37.132Z,-0.10
2018-03-15T00:23:03.968Z,-0.10
2018-03-15T00:25:30.811Z,0.00
2018-03-15T00:27:56.876Z,-0.10
2018-03-15T00:30:23.721Z,0.00
2018-03-15T00:32:50.628Z,0.00
2018-03-15T00:35:16.706Z,0.00
2018-03-15T00:37:42.812Z,0.00
2018-03-15T00:40:08.885Z,0.20
2018-03-15T00:42:34.972Z,0.20
2018-03-15T00:45:01.058Z,0.20
2018-03-15T00:47:27.161Z,0.10
2018-03-15T00:49:53.229Z,0.20
2018-03-15T00:52:19.323Z,0.20
2018-03-15T00:54:45.395Z,0.20
2018-03-15T00:57:11.499Z,0.10
2018-03-15T00:59:37.616Z,0.10
2018-03-15T01:02:03.716Z,0.10
2018-03-15T01:04:29.814Z,0.00
2018-03-15T01:06:55.908Z,0.10
2018-03-15T01:09:22.735Z,0.20
2018-03-15T01:11:48.833Z,0.20
2018-03-15T01:14:14.887Z,0.20
2018-03-15T01:16:40.949Z,0.20
2018-03-15T01:19:07.032Z,0.10
2018-03-15T01:21:33.104Z,0.10
2018-03-15T01:23:59.268Z,0.10
2018-03-15T01:26:25.331Z,0.00
2018-03-15T01:28:52.159Z,0.00
2018-03-15T01:31:18.345Z,0.00
2018-03-15T01:33:44.476Z,0.00
2018-03-15T01:36:10.576Z,-0.10
2018-03-15T01:38:36.651Z,-0.20
2018-03-15T01:41:02.751Z,-0.20
2018-03-15T01:43:28.811Z,-0.30
2018-03-15T01:45:55.667Z,-0.60
2018-03-15T01:48:22.481Z,-0.70
2018-03-15T01:50:48.597Z,-0.70
2018-03-15T01:53:14.672Z,-0.70
2018-03-15T01:55:40.783Z,-0.80
2018-03-15T01:58:06.895Z,-0.90
2018-03-15T02:00:32.969Z,-0.90
2018-03-15T02:02:59.073Z,-1.00
2018-03-15T02:05:25.286Z,-1.10
2018-03-15T02:07:52.102Z,-1.20
2018-03-15T02:10:18.197Z,-1.20
2018-03-15T02:12:44.309Z,-1.30
2018-03-15T02:15:10.410Z,-1.30
2018-03-15T02:17:36.523Z,-1.30
2018-03-15T02:20:02.633Z,-1.30
2018-03-15T02:22:29.466Z,-1.40
2018-03-15T02:24:55.567Z,-1.40
2018-03-15T02:27:21.645Z,-1.40
2018-03-15T02:29:47.734Z,-1.40
2018-03-15T02:32:13.803Z,-1.40
2018-03-15T02:34:39.911Z,-1.30
2018-03-15T02:37:05.993Z,-1.30
2018-03-15T02:39:32.102Z,-1.40
2018-03-15T02:41:58.180Z,-1.50
2018-03-15T02:44:24.287Z,-1.50
2018-03-15T02:46:50.362Z,-1.50
2018-03-15T02:49:17.151Z,-1.50
2018-03-15T02:51:43.238Z,-1.50
2018-03-15T02:54:09.286Z,-1.50
2018-03-15T02:56:35.326Z,-1.50
2018-03-15T02:59:02.151Z,-1.70
2018-03-15T03:01:28.202Z,-1.70
2018-03-15T03:03:54.299Z,-1.70
2018-03-15T03:06:20.365Z,-1.70
2018-03-15T03:08:46.418Z,-1.70
2018-03-15T03:11:12.498Z,-1.70
2018-03-15T03:13:38.587Z,-1.70
2018-03-15T03:16:04.682Z,-1.70
2018-03-15T03:18:30.762Z,-1.70
2018-03-15T03:20:56.808Z,-1.60
2018-03-15T03:23:22.849Z,-1.50
2018-03-15T03:25:48.946Z,-1.50
2018-03-15T03:28:15.015Z,-1.50
2018-03-15T03:30:41.041Z,-1.50
2018-03-15T03:33:07.109Z,-1.50
2018-03-15T03:35:33.918Z,-1.60
2018-03-15T03:38:00.027Z,-1.60
2018-03-15T03:40:26.076Z,-1.60
2018-03-15T03:42:52.177Z,-1.60
2018-03-15T03:45:18.962Z,-1.50
2018-03-15T03:47:45.007Z,-1.60
2018-03-15T03:50:11.115Z,-1.50
2018-03-15T03:52:37.166Z,-1.40
2018-03-15T03:55:03.273Z,-1.40
2018-03-15T03:57:30.089Z,-1.40
2018-03-15T03:59:56.154Z,-1.40
2018-03-15T04:02:22.241Z,-1.40
2018-03-15T04:04:48.298Z,-1.40
2018-03-15T04:07:14.342Z,-1.40
2018-03-15T04:09:40.397Z,-1.40
2018-03-15T04:12:06.457Z,-1.30
2018-03-15T04:14:33.273Z,-1.30
2018-03-15T04:16:59.322Z,-1.30
2018-03-15T04:19:25.410Z,-1.30
2018-03-15T04:21:51.464Z,-1.30
2018-03-15T04:24:17.513Z,-1.30
2018-03-15T04:26:43.585Z,-1.20
2018-03-15T04:29:09.633Z,-1.30
2018-03-15T04:31:36.462Z,-1.30
2018-03-15T04:34:02.526Z,-1.30
2018-03-15T04:36:29.356Z,-1.30
2018-03-15T04:38:55.405Z,-1.30
2018-03-15T04:41:21.492Z,-1.30
2018-03-15T04:43:47.593Z,-1.40
2018-03-15T04:46:14.403Z,-1.40
2018-03-15T04:48:40.506Z,-1.40
2018-03-15T04:51:06.574Z,-1.40
2018-03-15T04:53:33.531Z,-1.50
2018-03-15T04:55:59.602Z,-1.50
2018-03-15T04:58:25.706Z,-1.50
2018-03-15T05:00:51.787Z,-1.50
2018-03-15T05:03:18.626Z,-1.30
2018-03-15T05:05:44.759Z,-1.40
2018-03-15T05:08:10.826Z,-1.30
2018-03-15T05:10:37.646Z,-1.30
2018-03-15T05:13:03.734Z,-1.30
2018-03-15T05:15:29.841Z,-1.30
2018-03-15T05:17:55.918Z,-1.30
2018-03-15T05:20:22.123Z,-1.30
2018-03-15T05:22:48.970Z,-1.40
2018-03-15T05:25:15.018Z,-1.40
2018-03-15T05:27:41.902Z,-1.30
2018-03-15T05:30:07.978Z,-1.30
2018-03-15T05:32:34.074Z,-1.30
2018-03-15T05:35:00.124Z,-1.30
2018-03-15T05:37:26.179Z,-1.40
2018-03-15T05:39:52.254Z,-1.30
2018-03-15T05:42:18.293Z,-1.30
2018-03-15T05:44:45.118Z,-1.30
2018-03-15T05:47:11.216Z,-1.30
2018-03-15T05:49:37.338Z,-1.30
2018-03-15T05:52:04.123Z,-1.20
2018-03-15T05:54:30.256Z,-1.20
2018-03-15T05:56:56.302Z,-1.20
2018-03-15T05:59:22.382Z,-1.10
2018-03-15T06:01:48.466Z,-1.10
2018-03-15T06:04:14.566Z,-1.10
2018-03-15T06:06:41.450Z,-1.10
2018-03-15T06:09:07.514Z,-1.10
2018-03-15T06:11:33.717Z,-1.10
2018-03-15T06:13:59.641Z,-1.00
2018-03-15T06:16:26.470Z,-1.00
2018-03-15T06:18:52.526Z,-1.00
2018-03-15T06:21:19.350Z,-1.00
2018-03-15T06:23:45.395Z,-1.00
2018-03-15T06:26:11.479Z,-0.90
2018-03-15T06:28:37.571Z,-0.80
2018-03-15T06:31:03.734Z,-0.70
2018-03-15T06:33:30.618Z,-0.60
2018-03-15T06:35:56.726Z,-0.60
2018-03-15T06:38:22.893Z,-0.50
2018-03-15T06:40:48.937Z,-0.40
2018-03-15T06:43:15.014Z,-0.30
2018-03-15T06:45:41.058Z,-0.30
2018-03-15T06:48:07.144Z,-0.20
2018-03-15T06:50:33.234Z,-0.10
2018-03-15T06:52:59.404Z,0.00
2018-03-15T06:55:26.261Z,0.10
2018-03-15T06:57:52.286Z,0.10
2018-03-15T07:00:19.121Z,0.30
2018-03-15T07:02:45.182Z,0.20
2018-03-15T07:05:12.009Z,0.40
2018-03-15T07:07:38.062Z,0.50
2018-03-15T07:10:04.222Z,0.50
2018-03-15T07:12:30.303Z,0.60
2018-03-15T07:14:56.382Z,0.70
2018-03-15T07:17:23.237Z,0.90
2018-03-15T07:19:50.073Z,1.00
2018-03-15T07:22:16.113Z,1.00
2018-03-15T07:24:42.294Z,1.00
2018-03-15T07:27:08.350Z,1.20
2018-03-15T07:29:34.424Z,1.30
2018-03-15T07:32:00.501Z,1.40
2018-03-15T07:34:26.597Z,1.50
2018-03-15T07:36:52.645Z,1.60
2018-03-15T07:39:18.730Z,1.70
2018-03-15T07:41:44.814Z,1.80
2018-03-15T07:44:10.939Z,1.90
2018-03-15T07:46:36.997Z,1.90
2018-03-15T07:49:03.233Z,2.10
2018-03-15T07:51:29.410Z,2.20
2018-03-15T07:53:55.494Z,2.20
2018-03-15T07:56:21.607Z,2.40
2018-03-15T07:58:47.699Z,2.50
2018-03-15T08:01:14.535Z,2.70
2018-03-15T08:03:40.585Z,2.70
2018-03-15T08:06:06.674Z,2.80
2018-03-15T08:08:32.722Z,3.00
2018-03-15T08:10:58.799Z,3.10
2018-03-15T08:13:24.882Z,3.30
2018-03-15T08:15:50.961Z,3.40
2018-03-15T08:18:17.031Z,3.50
2018-03-15T08:20:43.864Z,3.70
2018-03-15T08:23:09.911Z,3.70
2018-03-15T08:25:36.706Z,4.00
2018-03-15T08:28:02.807Z,4.00
2018-03-15T08:30:29.602Z,4.20
2018-03-15T08:32:55.685Z,4.10
2018-03-15T08:35:21.775Z,4.30
2018-03-15T08:37:47.814Z,4.40
2018-03-15T08:40:13.907Z,4.40
2018-03-15T08:42:40.777Z,4.60
2018-03-15T08:45:06.841Z,4.60
2018-03-15T08:47:33.650Z,4.70
2018-03-15T08:50:00.519Z,4.80
2018-03-15T08:52:27.343Z,4.90
2018-03-15T08:54:53.446Z,4.80
2018-03-15T08:57:19.526Z,4.90
2018-03-15T08:59:45.675Z,5.00
2018-03-15T09:02:12.492Z,5.10
2018-03-15T09:04:39.218Z,5.10
2018-03-15T09:07:04.678Z,5.20
2018-03-15T09:09:30.773Z,5.30
2018-03-15T09:11:56.881Z,5.40
2018-03-15T09:14:22.974Z,5.70
2018-03-15T09:16:49.822Z,6.20
2018-03-15T09:19:15.932Z,6.10
2018-03-15T09:21:42.018Z,6.20
2018-03-15T09:24:08.128Z,6.20
2018-03-15T09:26:34.197Z,6.20
2018-03-15T09:29:00.341Z,6.10
2018-03-15T09:31:26.387Z,6.20
2018-03-15T09:33:52.511Z,6.20
2018-03-15T09:36:18.593Z,6.40
2018-03-15T09:38:44.707Z,6.50
2018-03-15T09:41:10.826Z,6.60
2018-03-15T09:43:36.911Z,6.60
2018-03-15T09:46:03.086Z,6.60
2018-03-15T09:48:29.118Z,6.60
2018-03-15T09:50:55.262Z,6.70
2018-03-15T09:53:21.371Z,6.80
2018-03-15T09:55:47.474Z,6.90
2018-03-15T09:58:13.590Z,7.00
2018-03-15T10:00:39.675Z,7.10
2018-03-15T10:03:05.790Z,7.20
2018-03-15T10:05:31.919Z,7.30
2018-03-15T10:07:58.054Z,7.40
2018-03-15T10:10:24.171Z,7.40
2018-03-15T10:12:50.262Z,7.50
2018-03-15T10:15:16.377Z,7.50
2018-03-15T10:17:42.502Z,7.60
2018-03-15T10:20:08.615Z,7.70
2018-03-15T10:22:34.728Z,7.70
2018-03-15T10:25:00.813Z,7.70
2018-03-15T10:27:26.953Z,7.70
2018-03-15T10:29:53.042Z,7.70
2018-03-15T10:32:19.165Z,7.70
2018-03-15T10:34:46.073Z,7.90
2018-03-15T10:37:12.876Z,8.00
2018-03-15T10:39:39.702Z,8.00
2018-03-15T10:42:05.827Z,8.00
2018-03-15T10:44:31.913Z,8.10
2018-03-15T10:46:58.769Z,8.50
2018-03-15T10:49:25.603Z,8.70
2018-03-15T10:51:51.719Z,8.70
2018-03-15T10:54:17.815Z,8.70
2018-03-15T10:56:44.681Z,8.70
2018-03-15T10:59:10.799Z,8.70
2018-03-15T11:01:43.101Z,8.80
2018-03-15T11:04:09.978Z,9.10
2018-03-15T11:06:41.018Z,9.00
2018-03-15T11:09:13.106Z,9.20
2018-03-15T11:11:39.210Z,9.20
2018-03-15T11:14:05.277Z,9.20
2018-03-15T11:16:32.111Z,9.60
2018-03-15T11:18:58.170Z,9.60
2018-03-15T11:21:24.278Z,9.90
2018-03-15T11:23:50.412Z,9.90
2018-03-15T11:26:16.453Z,10.00
2018-03-15T11:28:42.514Z,10.00
2018-03-15T11:31:08.621Z,10.00
2018-03-15T11:33:34.686Z,10.10
2018-03-15T11:36:00.786Z,10.10
2018-03-15T11:38:27.591Z,10.60
2018-03-15T11:40:53.638Z,10.50
2018-03-15T11:43:19.749Z,10.60
2018-03-15T11:45:45.866Z,10.80
2018-03-15T11:48:12.702Z,11.00
2018-03-15T11:50:38.820Z,11.00
2018-03-15T11:53:04.875Z,11.20
2018-03-15T11:55:30.994Z,11.20
2018-03-15T11:57:57.088Z,11.40
2018-03-15T12:00:23.146Z,11.60
2018-03-15T12:02:49.222Z,11.60
2018-03-15T12:05:15.311Z,11.70
2018-03-15T12:07:41.436Z,11.50
2018-03-15T12:10:07.484Z,11.60
2018-03-15T12:12:33.542Z,11.70
2018-03-15T12:14:59.631Z,11.90
2018-03-15T12:17:26.435Z,12.00
2018-03-15T12:19:53.269Z,12.00
2018-03-15T12:22:19.358Z,12.00
2018-03-15T12:24:45.442Z,12.20
2018-03-15T12:27:11.508Z,12.10
2018-03-15T12:29:37.602Z,11.90
2018-03-15T12:32:04.399Z,12.30
2018-03-15T12:34:30.481Z,12.30
2018-03-15T12:36:56.526Z,12.40
2018-03-15T12:39:23.358Z,12.40
2018-03-15T12:41:49.406Z,12.40
2018-03-15T12:44:15.466Z,12.30
2018-03-15T12:46:42.285Z,12.50
2018-03-15T12:49:08.369Z,12.50
2018-03-15T12:51:34.456Z,12.70
2018-03-15T12:54:00.538Z,12.70
2018-03-15T12:56:26.630Z,13.00
2018-03-15T12:58:52.689Z,12.90
2018-03-15T13:01:19.608Z,12.90
2018-03-15T13:03:45.666Z,12.90
2018-03-15T13:06:11.754Z,13.00
2018-03-15T13:08:37.819Z,13.10
2018-03-15T13:11:03.905Z,13.20
2018-03-15T13:13:30.714Z,13.40
2018-03-15T13:15:56.767Z,13.40
2018-03-15T13:18:22.854Z,13.50
2018-03-15T13:20:49.011Z,13.10
2018-03-15T13:23:15.128Z,13.00
2018-03-15T13:25:41.191Z,13.40
2018-03-15T13:28:07.274Z,13.60
2018-03-15T13:30:33.350Z,13.50
2018-03-15T13:32:59.462Z,13.50
2018-03-15T13:35:26.358Z,13.20
2018-03-15T13:37:52.894Z,13.10
2018-03-15T13:40:18.962Z,13.50
2018-03-15T13:42:45.055Z,13.80
2018-03-15T13:45:11.159Z,13.80
2018-03-15T13:47:37.238Z,13.60
2018-03-15T13:50:03.358Z,13.30
2018-03-15T13:52:30.231Z,12.60
2018-03-15T13:54:56.302Z,12.60
2018-03-15T13:57:22.414Z,12.70
2018-03-15T13:59:48.537Z,12.60
2018-03-15T14:02:15.365Z,12.20
2018-03-15T14:04:41.502Z,12.20
2018-03-15T14:07:07.627Z,12.10
2018-03-15T14:09:33.701Z,12.00
2018-03-15T14:12:00.517Z,12.10
2018-03-15T14:14:26.651Z,12.10
2018-03-15T14:16:52.726Z,12.00
2018-03-15T14:19:19.553Z,11.80
2018-03-15T14:21:45.687Z,11.90
2018-03-15T14:24:11.758Z,11.90
2018-03-15T14:26:37.866Z,11.70
2018-03-15T14:29:03.980Z,11.80
2018-03-15T14:31:30.102Z,11.60
2018-03-15T14:33:56.171Z,11.60
2018-03-15T14:36:22.326Z,11.50
2018-03-15T14:38:48.416Z,11.40
2018-03-15T14:41:14.499Z,11.40
2018-03-15T14:43:40.609Z,11.30
2018-03-15T14:46:06.690Z,11.40
2018-03-15T14:48:32.830Z,11.30
2018-03-15T14:50:58.918Z,11.20
2018-03-15T14:53:25.078Z,11.10
2018-03-15T14:55:51.194Z,11.10
2018-03-15T14:58:17.250Z,11.10
2018-03-15T15:00:43.337Z,11.10
2018-03-15T15:03:10.242Z,10.90
2018-03-15T15:05:36.322Z,10.90
2018-03-15T15:08:02.406Z,10.80
2018-03-15T15:10:28.466Z,10.80
2018-03-15T15:12:54.554Z,10.80
2018-03-15T15:15:21.366Z,10.80
2018-03-15T15:17:47.414Z,10.70
2018-03-15T15:20:13.520Z,10.70
2018-03-15T15:22:39.593Z,10.60
2018-03-15T15:25:05.793Z,10.60
2018-03-15T15:27:31.884Z,10.50
2018-03-15T15:29:57.904Z,10.50
2018-03-15T15:32:24.093Z,10.40
2018-03-15T15:34:50.329Z,10.40
2018-03-15T15:37:16.454Z,10.30
2018-03-15T15:39:42.563Z,10.20
2018-03-15T15:42:08.643Z,10.20
2018-03-15T15:44:34.754Z,10.20
2018-03-15T15:47:01.642Z,10.10
2018-03-15T15:49:27.763Z,10.10
2018-03-15T15:51:53.926Z,10.10
2018-03-15T15:54:20.039Z,10.00
2018-03-15T15:56:46.866Z,10.00
2018-03-15T15:59:12.987Z,9.90
2018-03-15T16:01:39.086Z,9.90
2018-03-15T16:04:05.171Z,9.80
2018-03-15T16:06:31.294Z,9.80
2018-03-15T16:08:57.385Z,9.70
2018-03-15T16:11:24.237Z,9.60
2018-03-15T16:13:51.145Z,9.50
2018-03-15T16:16:17.263Z,9.60
2018-03-15T16:18:43.342Z,9.50
2018-03-15T16:21:09.462Z,9.40
2018-03-15T16:23:35.586Z,9.40
2018-03-15T16:26:01.774Z,9.30
2018-03-15T16:28:28.685Z,9.10
2018-03-15T16:30:54.814Z,9.10
2018-03-15T16:33:20.974Z,9.10
2018-03-15T16:35:47.090Z,9.00
2018-03-15T16:38:13.259Z,9.00
2018-03-15T16:40:39.378Z,8.90
2018-03-15T16:43:05.572Z,8.80
2018-03-15T16:45:31.648Z,8.70
2018-03-15T16:47:57.751Z,8.70
2018-03-15T16:50:24.570Z,8.60
2018-03-15T16:52:50.844Z,8.60
2018-03-15T16:55:17.775Z,8.60
2018-03-15T16:57:43.886Z,8.60
2018-03-15T17:00:10.021Z,8.50
2018-03-15T17:02:36.134Z,8.50
2018-03-15T17:05:02.226Z,8.40
2018-03-15T17:07:28.313Z,8.30
2018-03-15T17:09:54.434Z,8.30
2018-03-15T17:12:21.258Z,8.20
2018-03-15T17:14:47.377Z,8.20
2018-03-15T17:17:13.490Z,8.20
2018-03-15T17:19:39.638Z,8.10
2018-03-15T17:22:05.803Z,8.10
2018-03-15T17:24:31.917Z,8.00
2018-03-15T17:26:58.109Z,8.00
2018-03-15T17:29:24.291Z,8.00
2018-03-15T17:31:50.436Z,7.90
2018-03-15T17:34:16.589Z,7.90
2018-03-15T17:36:42.777Z,7.90
2018-03-15T17:39:09.614Z,7.70
2018-03-15T17:41:35.703Z,7.70
2018-03-15T17:44:01.810Z,7.70
2018-03-15T17:46:28.653Z,7.60
2018-03-15T17:48:54.870Z,7.60
2018-03-15T17:51:20.994Z,7.60
2018-03-15T17:53:47.069Z,7.50
2018-03-15T17:56:13.264Z,7.50
2018-03-15T17:58:39.366Z,7.40
2018-03-15T18:01:06.205Z,7.40
2018-03-15T18:03:32.317Z,7.40
2018-03-15T18:05:58.418Z,7.30
2018-03-15T18:08:24.530Z,7.30
2018-03-15T18:10:51.503Z,7.20
2018-03-15T18:13:17.690Z,7.20
2018-03-15T18:15:43.824Z,7.20
2018-03-15T18:18:09.954Z,7.30
2018-03-15T18:20:36.106Z,7.30
2018-03-15T18:23:02.226Z,7.30
2018-03-15T18:25:28.375Z,7.30
2018-03-15T18:27:54.510Z,7.30
2018-03-15T18:30:20.598Z,7.40
2018-03-15T18:32:47.481Z,7.40
2018-03-15T18:35:13.661Z,7.30
2018-03-15T18:37:39.817Z,7.30
2018-03-15T18:40:05.910Z,7.30
2018-03-15T18:42:32.000Z,7.30
2018-03-15T18:44:58.101Z,7.30
2018-03-15T18:47:24.240Z,7.40
2018-03-15T18:49:50.377Z,7.40
2018-03-15T18:52:16.468Z,7.40
2018-03-15T18:54:43.330Z,7.40
2018-03-15T18:57:09.442Z,7.30
2018-03-15T18:59:35.681Z,7.30
2018-03-15T19:02:01.774Z,7.20
2018-03-15T19:04:27.904Z,7.20
2018-03-15T19:06:54.069Z,7.10
2018-03-15T19:09:20.914Z,6.80
2018-03-15T19:11:47.034Z,6.80
2018-03-15T19:14:13.228Z,6.70
2018-03-15T19:16:39.581Z,6.70
2018-03-15T19:19:05.729Z,6.60
2018-03-15T19:21:32.621Z,6.50
2018-03-15T19:23:58.809Z,6.50
2018-03-15T19:26:24.885Z,6.50
2018-03-15T19:28:51.003Z,6.50
2018-03-15T19:31:17.894Z,6.40
2018-03-15T19:33:44.067Z,6.40
2018-03-15T19:36:10.190Z,6.30
2018-03-15T19:38:36.305Z,6.30
2018-03-15T19:41:02.629Z,6.30
2018-03-15T19:43:28.793Z,6.30
2018-03-15T19:45:54.904Z,6.30
2018-03-15T19:48:21.730Z,6.30
2018-03-15T19:50:47.879Z,6.20
2018-03-15T19:53:13.986Z,6.20
2018-03-15T19:55:40.086Z,6.30
2018-03-15T19:58:06.135Z,6.20
2018-03-15T20:00:32.320Z,6.20
2018-03-15T20:02:58.430Z,6.10
2018-03-15T20:05:24.488Z,6.10
2018-03-15T20:07:50.605Z,6.10
2018-03-15T20:10:16.710Z,6.10
2018-03-15T20:12:42.885Z,6.00
2018-03-15T20:15:08.941Z,6.00
2018-03-15T20:17:35.050Z,6.00
2018-03-15T20:20:01.106Z,5.90
2018-03-15T20:22:33.333Z,5.90
2018-03-15T20:25:00.156Z,5.80
2018-03-15T20:27:32.430Z,5.80
2018-03-15T20:29:58.527Z,5.80
2018-03-15T20:32:31.685Z,5.80
2018-03-15T20:34:57.738Z,5.80
2018-03-15T20:37:24.573Z,5.70
2018-03-15T20:39:56.877Z,5.70
2018-03-15T20:42:23.102Z,5.70
2018-03-15T20:44:49.183Z,5.70
2018-03-15T20:47:21.312Z,5.60
2018-03-15T20:49:47.372Z,5.60
2018-03-15T20:52:13.497Z,5.70
2018-03-15T20:54:39.638Z,5.70
2018-03-15T20:57:05.755Z,5.70
2018-03-15T20:59:31.897Z,5.70
2018-03-15T21:01:58.051Z,5.70
2018-03-15T21:04:24.105Z,5.70
2018-03-15T21:06:50.198Z,5.60
2018-03-15T21:09:17.023Z,5.60
2018-03-15T21:11:43.074Z,5.60
2018-03-15T21:14:09.894Z,5.60
2018-03-15T21:16:36.814Z,5.60
2018-03-15T21:19:02.902Z,5.50
2018-03-15T21:21:28.978Z,5.50
2018-03-15T21:23:55.074Z,5.60
2018-03-15T21:26:21.873Z,5.50
2018-03-15T21:28:48.012Z,5.50
2018-03-15T21:31:14.070Z,5.50
2018-03-15T21:33:40.201Z,5.50
2018-03-15T21:36:06.279Z,5.50
2018-03-15T21:38:33.170Z,5.40
2018-03-15T21:40:59.361Z,5.40
2018-03-15T21:43:26.198Z,5.50
2018-03-15T21:45:52.294Z,5.40
2018-03-15T21:48:18.587Z,5.40
2018-03-15T21:50:44.774Z,5.40
2018-03-15T21:53:10.890Z,5.40
2018-03-15T21:55:37.740Z,5.40
2018-03-15T21:58:03.833Z,5.30
2018-03-15T22:00:29.910Z,5.40
2018-03-15T22:02:57.125Z,5.40
2018-03-15T22:05:23.256Z,5.40
2018-03-15T22:07:49.427Z,5.30
2018-03-15T22:10:15.605Z,5.30
2018-03-15T22:12:41.741Z,5.30
2018-03-15T22:15:08.628Z,5.30
2018-03-15T22:17:34.776Z,5.30
2018-03-15T22:20:00.933Z,5.30
2018-03-15T22:22:27.089Z,5.30
2018-03-15T22:24:53.344Z,5.30
2018-03-15T22:27:19.482Z,5.30
2018-03-15T22:29:46.361Z,5.30
2018-03-15T22:32:12.508Z,5.20
2018-03-15T22:34:39.594Z,5.30
2018-03-15T22:37:05.701Z,5.30
2018-03-15T22:39:31.857Z,5.30
2018-03-15T22:41:57.980Z,5.30
2018-03-15T22:44:24.124Z,5.30
2018-03-15T22:46:50.247Z,5.30
2018-03-15T22:49:16.406Z,5.30
2018-03-15T22:51:42.601Z,5.30
2018-03-15T22:54:08.725Z,5.20
2018-03-15T22:56:34.876Z,5.20
2018-03-15T22:59:01.033Z,5.20
2018-03-15T23:01:27.933Z,5.20
2018-03-15T23:03:54.088Z,5.20
2018-03-15T23:06:20.216Z,5.20
2018-03-15T23:08:46.369Z,5.20
2018-03-15T23:11:12.487Z,5.20
2018-03-15T23:13:38.625Z,5.10
2018-03-15T23:16:04.765Z,5.10
2018-03-15T23:18:30.940Z,5.10
2018-03-15T23:20:57.056Z,5.10
2018-03-15T23:23:23.205Z,5.10
2018-03-15T23:25:49.351Z,5.10
2018-03-15T23:28:15.478Z,5.20
2018-03-15T23:30:41.623Z,5.10
2018-03-15T23:33:07.764Z,5.10
2018-03-15T23:35:33.905Z,5.10
2018-03-15T23:38:00.024Z,5.10
2018-03-15T23:40:26.119Z,5.10
2018-03-15T23:42:52.308Z,5.20
2018-03-15T23:45:18.407Z,5.20
2018-03-15T23:47:44.528Z,5.20
2018-03-15T23:50:11.396Z,5.00
2018-03-15T23:52:37.489Z,5.00
2018-03-15T23:55:03.620Z,4.90
2018-03-15T23:57:29.720Z,4.90
2018-03-15T23:59:55.840Z,4.90
